createdAt,value
2022-07-29T00:02:09.056Z,22.16
2022-07-29T00:04:39.773Z,22.04
2022-07-29T00:07:10.228Z,22.02
2022-07-29T00:09:50.407Z,21.90
2022-07-29T00:12:26.996Z,21.73
2022-07-29T00:14:58.960Z,21.57
2022-07-29T00:17:29.539Z,21.63
2022-07-29T00:19:59.517Z,21.58
2022-07-29T00:22:29.775Z,21.53
2022-07-29T00:25:00.063Z,21.39
2022-07-29T00:27:30.380Z,21.29
2022-07-29T00:30:00.731Z,21.27
2022-07-29T00:32:30.928Z,21.20
2022-07-29T00:35:18.922Z,21.10
2022-07-29T00:37:49.552Z,21.03
2022-07-29T00:40:19.726Z,20.86
2022-07-29T00:42:55.407Z,20.63
2022-07-29T00:45:25.590Z,20.13
2022-07-29T00:47:55.574Z,19.31
2022-07-29T00:50:26.844Z,18.59
2022-07-29T00:52:57.601Z,17.89
2022-07-29T00:55:27.877Z,17.71
2022-07-29T00:57:59.496Z,17.75
2022-07-29T01:00:32.206Z,17.68
2022-07-29T01:03:03.125Z,17.47
2022-07-29T01:05:50.097Z,17.30
2022-07-29T01:08:22.810Z,17.18
2022-07-29T01:10:54.798Z,17.06
2022-07-29T01:13:25.191Z,16.99
2022-07-29T01:16:01.124Z,16.90
2022-07-29T01:18:40.383Z,16.80
2022-07-29T01:21:49.252Z,16.92
2022-07-29T01:24:43.503Z,16.85
2022-07-29T01:27:19.470Z,16.73
2022-07-29T01:30:02.703Z,16.78
2022-07-29T01:32:38.838Z,16.89
2022-07-29T01:35:29.338Z,16.96
2022-07-29T01:38:28.004Z,17.02
2022-07-29T01:41:11.610Z,17.19
2022-07-29T01:43:50.680Z,17.36
2022-07-29T01:46:42.737Z,17.37
2022-07-29T01:49:28.435Z,17.39
2022-07-29T01:52:08.100Z,17.44
2022-07-29T01:55:13.893Z,17.50
2022-07-29T01:57:48.797Z,17.46
2022-07-29T02:00:20.377Z,17.50
2022-07-29T02:02:52.295Z,17.51
2022-07-29T02:05:25.530Z,17.47
2022-07-29T02:07:57.005Z,17.40
2022-07-29T02:10:30.497Z,17.31
2022-07-29T02:13:02.154Z,17.29
2022-07-29T02:15:35.606Z,17.20
2022-07-29T02:18:16.052Z,17.06
2022-07-29T02:20:50.854Z,17.03
2022-07-29T02:23:26.592Z,16.96
2022-07-29T02:26:01.831Z,16.89
2022-07-29T02:28:33.962Z,16.80
2022-07-29T02:31:06.207Z,16.75
2022-07-29T02:33:36.499Z,16.68
2022-07-29T02:36:07.245Z,16.42
2022-07-29T02:38:55.491Z,16.31
2022-07-29T02:41:37.922Z,16.14
2022-07-29T02:44:22.552Z,16.20
2022-07-29T02:47:13.820Z,16.38
2022-07-29T02:49:48.738Z,16.54
2022-07-29T02:52:31.142Z,16.49
2022-07-29T02:55:24.523Z,16.51
2022-07-29T02:58:05.693Z,16.51
2022-07-29T03:00:40.922Z,16.37
2022-07-29T03:03:15.606Z,16.38
2022-07-29T03:05:45.859Z,16.45
2022-07-29T03:08:18.615Z,16.51
2022-07-29T03:10:50.342Z,16.37
2022-07-29T03:13:22.183Z,16.09
2022-07-29T03:15:52.846Z,16.06
2022-07-29T03:18:24.003Z,16.16
2022-07-29T03:20:54.971Z,16.25
2022-07-29T03:23:33.286Z,16.25
2022-07-29T03:26:07.265Z,16.11
2022-07-29T03:28:37.475Z,15.99
2022-07-29T03:31:10.287Z,15.89
2022-07-29T03:33:40.197Z,15.94
2022-07-29T03:36:11.071Z,15.91
2022-07-29T03:38:48.627Z,15.87
2022-07-29T03:41:22.308Z,15.86
2022-07-29T03:43:54.887Z,15.74
2022-07-29T03:46:28.959Z,15.70
2022-07-29T03:49:03.806Z,15.53
2022-07-29T03:51:34.771Z,15.43
2022-07-29T03:54:10.181Z,15.45
2022-07-29T03:56:49.524Z,15.63
2022-07-29T03:59:24.905Z,15.72
2022-07-29T04:01:56.382Z,15.74
2022-07-29T04:04:28.168Z,15.74
2022-07-29T04:06:59.540Z,15.59
2022-07-29T04:09:29.605Z,15.43
2022-07-29T04:12:02.967Z,15.29
2022-07-29T04:14:35.441Z,15.18
2022-07-29T04:17:07.078Z,15.41
2022-07-29T04:19:37.539Z,15.49
2022-07-29T04:22:07.543Z,15.31
2022-07-29T04:24:38.012Z,15.12
2022-07-29T04:27:08.708Z,14.91
2022-07-29T04:29:56.252Z,14.87
2022-07-29T04:32:29.055Z,14.97
2022-07-29T04:35:00.001Z,15.12
2022-07-29T04:37:31.753Z,15.10
2022-07-29T04:40:02.283Z,15.14
2022-07-29T04:42:32.669Z,15.21
2022-07-29T04:45:02.603Z,15.24
2022-07-29T04:47:33.108Z,15.17
2022-07-29T04:50:04.324Z,15.15
2022-07-29T04:52:34.593Z,15.17
2022-07-29T04:55:05.730Z,15.04
2022-07-29T04:57:36.338Z,14.98
2022-07-29T05:00:08.512Z,14.90
2022-07-29T05:02:39.435Z,15.05
2022-07-29T05:05:10.352Z,15.08
2022-07-29T05:07:40.662Z,15.00
2022-07-29T05:10:11.881Z,14.77
2022-07-29T05:12:42.524Z,14.60
2022-07-29T05:15:12.792Z,14.69
2022-07-29T05:17:42.939Z,14.53
2022-07-29T05:20:13.453Z,14.34
2022-07-29T05:22:44.044Z,14.22
2022-07-29T05:25:14.123Z,14.19
2022-07-29T05:27:44.032Z,14.16
2022-07-29T05:30:15.115Z,14.12
2022-07-29T05:32:45.266Z,14.02
2022-07-29T05:35:16.332Z,13.92
2022-07-29T05:37:46.542Z,13.85
2022-07-29T05:40:16.849Z,13.85
2022-07-29T05:42:47.458Z,13.95
2022-07-29T05:45:17.692Z,14.04
2022-07-29T05:47:47.905Z,14.02
2022-07-29T05:50:17.872Z,14.06
2022-07-29T05:52:48.506Z,14.06
2022-07-29T05:55:20.114Z,13.97
2022-07-29T05:57:50.527Z,13.91
2022-07-29T06:00:21.024Z,13.92
2022-07-29T06:02:50.884Z,13.72
2022-07-29T06:05:21.618Z,13.74
2022-07-29T06:07:52.137Z,13.67
2022-07-29T06:10:23.919Z,13.65
2022-07-29T06:12:56.421Z,13.51
2022-07-29T06:15:26.658Z,13.37
2022-07-29T06:17:59.335Z,13.55
2022-07-29T06:20:32.678Z,13.50
2022-07-29T06:23:03.540Z,13.48
2022-07-29T06:25:38.749Z,13.44
2022-07-29T06:28:09.459Z,13.44
2022-07-29T06:30:39.433Z,13.41
2022-07-29T06:33:09.556Z,13.22
2022-07-29T06:35:42.734Z,13.17
2022-07-29T06:38:31.337Z,13.24
2022-07-29T06:41:08.055Z,13.22
2022-07-29T06:43:50.337Z,13.06
2022-07-29T06:46:24.412Z,13.09
2022-07-29T06:48:55.257Z,12.93
2022-07-29T06:51:25.358Z,12.79
2022-07-29T06:53:59.843Z,12.51
2022-07-29T06:56:39.434Z,12.48
2022-07-29T06:59:12.708Z,12.46
2022-07-29T07:01:45.006Z,12.30
2022-07-29T07:04:15.778Z,12.37
2022-07-29T07:06:47.624Z,12.54
2022-07-29T07:09:18.003Z,12.65
2022-07-29T07:11:49.713Z,12.69
2022-07-29T07:14:20.992Z,12.63
2022-07-29T07:16:52.513Z,12.48
2022-07-29T07:19:23.180Z,12.42
2022-07-29T07:21:53.185Z,12.49
2022-07-29T07:24:25.978Z,12.52
2022-07-29T07:26:56.301Z,12.42
2022-07-29T07:29:26.996Z,12.40
2022-07-29T07:32:00.728Z,12.28
2022-07-29T07:34:32.341Z,12.25
2022-07-29T07:37:03.310Z,12.25
2022-07-29T07:39:33.870Z,12.24
2022-07-29T07:42:04.172Z,12.17
2022-07-29T07:44:46.301Z,12.08
2022-07-29T07:47:25.768Z,11.86
2022-07-29T07:49:58.171Z,11.67
2022-07-29T07:52:28.595Z,11.58
2022-07-29T07:54:59.030Z,11.46
2022-07-29T07:57:28.994Z,11.31
2022-07-29T07:59:59.707Z,11.24
2022-07-29T08:02:30.174Z,11.25
2022-07-29T08:05:01.713Z,11.24
2022-07-29T08:07:31.880Z,11.07
2022-07-29T08:10:02.182Z,10.97
2022-07-29T08:12:32.448Z,10.84
2022-07-29T08:15:02.759Z,10.77
2022-07-29T08:17:35.370Z,10.74
2022-07-29T08:20:06.747Z,10.78
2022-07-29T08:22:36.955Z,10.70
2022-07-29T08:25:08.262Z,10.56
2022-07-29T08:27:43.710Z,10.53
2022-07-29T08:30:14.626Z,10.49
2022-07-29T08:32:53.851Z,10.42
2022-07-29T08:35:26.526Z,10.36
2022-07-29T08:37:58.893Z,10.33
2022-07-29T08:40:32.553Z,10.22
2022-07-29T08:43:09.283Z,10.12
2022-07-29T08:45:48.997Z,10.08
2022-07-29T08:48:24.421Z,9.96
2022-07-29T08:51:00.514Z,9.92
2022-07-29T08:53:31.652Z,9.88
2022-07-29T08:56:04.111Z,9.89
2022-07-29T08:58:38.311Z,9.88
2022-07-29T09:01:12.491Z,9.98
2022-07-29T09:03:45.754Z,10.15
2022-07-29T09:06:20.280Z,10.15
2022-07-29T09:08:51.391Z,10.03
2022-07-29T09:11:21.956Z,9.98
2022-07-29T09:13:52.130Z,10.01
2022-07-29T09:16:43.867Z,10.12
2022-07-29T09:19:30.053Z,10.10
2022-07-29T09:22:03.991Z,10.06
2022-07-29T09:24:47.524Z,10.05
2022-07-29T09:27:22.627Z,9.95
2022-07-29T09:30:03.101Z,9.88
2022-07-29T09:32:56.368Z,9.79
2022-07-29T09:35:28.599Z,9.62
2022-07-29T09:37:59.323Z,9.64
2022-07-29T09:40:31.041Z,9.52
2022-07-29T09:43:13.080Z,9.43
2022-07-29T09:45:43.273Z,9.28
2022-07-29T09:48:27.597Z,9.24
2022-07-29T09:51:00.278Z,9.13
2022-07-29T09:53:35.605Z,9.10
2022-07-29T09:56:06.994Z,9.00
2022-07-29T09:58:37.193Z,8.90
2022-07-29T10:01:07.493Z,8.89
2022-07-29T10:03:56.458Z,8.87
2022-07-29T10:06:26.731Z,8.73
2022-07-29T10:08:56.744Z,8.71
2022-07-29T10:11:27.596Z,8.69
2022-07-29T10:14:19.216Z,8.75
2022-07-29T10:16:49.867Z,8.66
2022-07-29T10:19:20.084Z,8.66
2022-07-29T10:21:54.951Z,8.69
2022-07-29T10:24:32.951Z,8.62
2022-07-29T10:27:04.324Z,8.66
2022-07-29T10:29:34.859Z,8.65
2022-07-29T10:32:34.060Z,8.59
2022-07-29T10:35:14.222Z,8.56
2022-07-29T10:38:31.905Z,8.48
2022-07-29T10:41:44.329Z,8.47
2022-07-29T10:44:23.013Z,8.59
2022-07-29T10:46:55.683Z,8.62
2022-07-29T10:49:30.606Z,8.66
2022-07-29T10:52:03.551Z,8.71
2022-07-29T10:54:42.476Z,8.73
2022-07-29T10:57:53.692Z,8.69
2022-07-29T11:00:29.257Z,8.73
2022-07-29T11:03:04.706Z,8.83
2022-07-29T11:05:59.388Z,8.82
2022-07-29T11:08:32.941Z,9.27
2022-07-29T11:11:22.130Z,9.81
2022-07-29T11:13:55.359Z,10.22
2022-07-29T11:16:26.194Z,10.53
2022-07-29T11:19:14.751Z,10.74
2022-07-29T11:21:54.322Z,10.88
2022-07-29T11:24:30.485Z,11.04
2022-07-29T11:30:09.178Z,10.88
2022-07-29T11:32:48.587Z,10.84
2022-07-29T11:38:32.074Z,10.84
2022-07-29T11:41:31.896Z,10.94
2022-07-29T11:44:03.124Z,11.12
2022-07-29T11:46:53.990Z,11.00
2022-07-29T11:52:17.562Z,11.07
2022-07-29T11:54:58.244Z,11.01
2022-07-29T11:57:37.409Z,11.10
2022-07-29T12:00:14.701Z,11.18
2022-07-29T12:02:49.106Z,11.74
2022-07-29T12:05:22.157Z,11.70
2022-07-29T12:07:03.248Z,11.19
2022-07-29T12:08:23.956Z,11.66
2022-07-29T12:10:55.070Z,11.89
2022-07-29T12:13:37.515Z,11.89
2022-07-29T12:16:08.244Z,11.67
2022-07-29T12:18:38.098Z,11.34
2022-07-29T12:21:12.339Z,11.28
2022-07-29T12:24:05.961Z,11.00
2022-07-29T12:26:56.147Z,11.53
2022-07-29T12:29:34.459Z,11.80
2022-07-29T12:32:14.667Z,11.22
2022-07-29T12:34:45.842Z,11.19
2022-07-29T12:37:16.025Z,11.77
2022-07-29T12:39:46.379Z,12.08
2022-07-29T12:42:18.737Z,12.10
2022-07-29T12:44:53.701Z,11.18
2022-07-29T12:47:24.380Z,12.13
2022-07-29T12:50:13.870Z,12.65
2022-07-29T12:52:44.633Z,12.78
2022-07-29T12:55:15.019Z,13.14
2022-07-29T12:57:54.475Z,13.44
2022-07-29T13:00:27.128Z,13.39
2022-07-29T13:03:00.784Z,13.23
2022-07-29T13:05:49.620Z,13.17
2022-07-29T13:08:23.659Z,13.41
2022-07-29T13:10:53.827Z,13.60
2022-07-29T13:13:24.202Z,13.54
2022-07-29T13:16:10.131Z,13.68
2022-07-29T13:18:41.029Z,13.61
2022-07-29T13:21:16.604Z,14.19
2022-07-29T13:23:49.145Z,14.47
2022-07-29T13:26:21.793Z,14.61
2022-07-29T13:28:52.685Z,14.37
2022-07-29T13:31:24.188Z,14.08
2022-07-29T13:33:54.622Z,14.06
2022-07-29T13:36:25.140Z,14.43
2022-07-29T13:38:55.994Z,14.32
2022-07-29T13:41:26.165Z,14.42
2022-07-29T13:43:56.125Z,14.71
2022-07-29T13:46:26.878Z,15.29
2022-07-29T13:48:57.467Z,15.07
2022-07-29T13:51:27.444Z,14.77
2022-07-29T13:53:57.830Z,14.87
2022-07-29T13:56:28.516Z,14.18
2022-07-29T13:58:59.423Z,14.79
2022-07-29T14:01:29.913Z,15.56
2022-07-29T14:04:00.667Z,15.10
2022-07-29T14:06:31.907Z,15.83
2022-07-29T14:09:02.023Z,15.72
2022-07-29T14:11:31.946Z,15.07
2022-07-29T14:14:02.330Z,15.73
2022-07-29T14:16:32.462Z,16.37
2022-07-29T14:19:03.116Z,16.64
2022-07-29T14:21:33.404Z,16.28
2022-07-29T14:24:03.599Z,17.29
2022-07-29T14:26:50.283Z,17.81
2022-07-29T14:29:21.094Z,18.15
2022-07-29T14:31:51.646Z,17.92
2022-07-29T14:34:21.849Z,17.58
2022-07-29T14:36:52.066Z,17.02
2022-07-29T14:39:22.317Z,17.98
2022-07-29T14:41:53.495Z,18.38
2022-07-29T14:44:23.706Z,18.76
2022-07-29T14:46:53.599Z,19.15
2022-07-29T14:49:24.018Z,19.22
2022-07-29T14:51:54.736Z,19.28
2022-07-29T14:54:25.446Z,18.98
2022-07-29T14:56:59.155Z,19.10
2022-07-29T14:59:29.485Z,18.80
2022-07-29T15:01:59.734Z,18.98
2022-07-29T15:04:30.876Z,19.12
2022-07-29T15:07:01.312Z,19.36
2022-07-29T15:09:31.323Z,19.42
2022-07-29T15:12:01.944Z,19.63
2022-07-29T15:14:33.835Z,19.79
2022-07-29T15:17:05.569Z,19.56
2022-07-29T15:19:36.405Z,19.92
2022-07-29T15:22:09.583Z,20.20
2022-07-29T15:24:39.966Z,20.33
2022-07-29T15:27:16.103Z,20.40
2022-07-29T15:29:47.428Z,20.69
2022-07-29T15:32:17.725Z,20.99
2022-07-29T15:34:47.760Z,21.03
2022-07-29T15:37:18.356Z,20.64
2022-07-29T15:39:48.414Z,20.13
2022-07-29T15:42:18.653Z,19.79
2022-07-29T15:44:48.712Z,19.90
2022-07-29T15:47:19.376Z,19.75
2022-07-29T15:49:49.612Z,19.65
2022-07-29T15:52:24.963Z,20.24
2022-07-29T15:54:59.095Z,20.33
2022-07-29T15:57:29.148Z,20.13
2022-07-29T15:59:59.549Z,20.51
2022-07-29T16:02:30.209Z,20.57
2022-07-29T16:05:00.208Z,20.35
2022-07-29T16:07:31.323Z,18.83
2022-07-29T16:10:03.128Z,18.90
2022-07-29T16:12:33.401Z,18.38
2022-07-29T16:15:09.074Z,18.52
2022-07-29T16:17:40.772Z,19.08
2022-07-29T16:20:11.156Z,18.71
2022-07-29T16:22:44.824Z,16.64
2022-07-29T16:25:15.183Z,15.69
2022-07-29T16:27:45.541Z,15.74
2022-07-29T16:30:15.504Z,16.45
2022-07-29T16:32:46.018Z,18.12
2022-07-29T16:35:16.807Z,18.57
2022-07-29T16:37:46.716Z,17.82
2022-07-29T16:40:16.858Z,18.39
2022-07-29T16:42:47.519Z,17.87
2022-07-29T16:45:21.244Z,16.54
2022-07-29T16:47:51.714Z,16.21
2022-07-29T16:50:22.972Z,16.57
2022-07-29T16:52:53.432Z,18.10
2022-07-29T16:55:24.524Z,17.66
2022-07-29T16:57:54.734Z,18.40
2022-07-29T17:00:25.162Z,18.28
2022-07-29T17:02:55.690Z,18.01
2022-07-29T17:05:26.163Z,17.19
2022-07-29T17:07:57.339Z,16.42
2022-07-29T17:10:29.496Z,16.92
2022-07-29T17:13:00.098Z,18.42
2022-07-29T17:15:30.658Z,18.91
2022-07-29T17:18:12.293Z,18.88
2022-07-29T17:20:43.559Z,19.18
2022-07-29T17:23:13.815Z,18.02
2022-07-29T17:25:44.316Z,18.22
2022-07-29T17:28:14.179Z,19.17
2022-07-29T17:30:44.324Z,19.41
2022-07-29T17:33:14.361Z,19.27
2022-07-29T17:36:03.235Z,19.24
2022-07-29T17:38:33.762Z,19.25
2022-07-29T17:41:07.665Z,19.17
2022-07-29T17:43:40.549Z,18.42
2022-07-29T17:46:11.276Z,17.97
2022-07-29T17:48:42.383Z,18.35
2022-07-29T17:51:13.232Z,18.59
2022-07-29T17:53:43.912Z,18.49
2022-07-29T17:56:15.292Z,18.32
2022-07-29T17:58:48.577Z,18.57
2022-07-29T18:01:19.604Z,18.35
2022-07-29T18:03:49.992Z,18.74
2022-07-29T18:06:20.413Z,19.34
2022-07-29T18:08:50.947Z,18.68
2022-07-29T18:11:21.217Z,16.88
2022-07-29T18:13:51.325Z,15.96
2022-07-29T18:16:22.188Z,15.50
2022-07-29T18:18:53.307Z,15.11
2022-07-29T18:21:44.348Z,14.94
2022-07-29T18:24:13.596Z,15.89
2022-07-29T18:26:43.951Z,15.29
2022-07-29T18:29:14.489Z,16.37
2022-07-29T18:31:44.520Z,16.69
2022-07-29T18:34:14.670Z,16.09
2022-07-29T18:36:44.787Z,15.31
2022-07-29T18:39:21.284Z,16.18
2022-07-29T18:41:52.570Z,17.12
2022-07-29T18:44:23.215Z,17.99
2022-07-29T18:46:53.820Z,18.61
2022-07-29T18:49:25.213Z,18.42
2022-07-29T18:51:55.904Z,18.33
2022-07-29T18:54:26.195Z,18.73
2022-07-29T18:56:56.515Z,19.15
2022-07-29T18:59:26.935Z,19.34
2022-07-29T19:01:57.363Z,19.10
2022-07-29T19:04:28.095Z,18.63
2022-07-29T19:07:00.383Z,18.61
2022-07-29T19:09:31.637Z,18.36
2022-07-29T19:12:03.757Z,18.02
2022-07-29T19:14:34.661Z,17.68
2022-07-29T19:17:04.835Z,17.26
2022-07-29T19:19:34.994Z,17.03
2022-07-29T19:22:05.438Z,16.83
2022-07-29T19:24:35.917Z,16.72
2022-07-29T19:27:06.030Z,16.51
2022-07-29T19:29:36.556Z,16.73
2022-07-29T19:32:07.927Z,17.03
2022-07-29T19:34:38.736Z,16.86
2022-07-29T19:37:08.688Z,16.89
2022-07-29T19:39:38.961Z,17.12
2022-07-29T19:42:09.750Z,17.03
2022-07-29T19:44:40.257Z,17.23
2022-07-29T19:47:10.160Z,17.09
2022-07-29T19:49:47.473Z,16.64
2022-07-29T19:52:17.862Z,16.37
2022-07-29T19:54:48.446Z,16.32
2022-07-29T19:57:18.453Z,15.91
2022-07-29T19:59:48.493Z,15.72
2022-07-29T20:02:20.464Z,15.69
2022-07-29T20:04:50.895Z,16.07
2022-07-29T20:07:21.480Z,16.13
2022-07-29T20:09:51.475Z,15.87
2022-07-29T20:12:21.953Z,16.06
2022-07-29T20:14:53.280Z,16.16
2022-07-29T20:17:26.110Z,16.03
2022-07-29T20:19:58.160Z,15.66
2022-07-29T20:22:29.125Z,15.50
2022-07-29T20:25:00.020Z,15.53
2022-07-29T20:27:30.633Z,15.43
2022-07-29T20:30:00.544Z,14.97
2022-07-29T20:32:31.128Z,14.76
2022-07-29T20:35:01.667Z,14.63
2022-07-29T20:37:31.554Z,14.66
2022-07-29T20:40:01.836Z,14.55
2022-07-29T20:42:32.034Z,14.47
2022-07-29T20:45:05.593Z,14.30
2022-07-29T20:47:38.662Z,14.11
2022-07-29T20:50:11.081Z,13.98
2022-07-29T20:52:42.398Z,13.91
2022-07-29T20:55:13.529Z,13.75
2022-07-29T20:57:44.387Z,13.51
2022-07-29T21:00:17.291Z,13.31
2022-07-29T21:02:48.495Z,13.27
2022-07-29T21:05:19.031Z,13.19
2022-07-29T21:07:49.877Z,13.04
2022-07-29T21:10:20.001Z,12.97
2022-07-29T21:12:50.621Z,12.88
2022-07-29T21:15:21.911Z,12.72
2022-07-29T21:18:00.650Z,12.54
2022-07-29T21:20:32.267Z,12.37
2022-07-29T21:23:02.410Z,12.28
2022-07-29T21:25:32.286Z,12.17
2022-07-29T21:28:21.198Z,12.05
2022-07-29T21:30:51.803Z,11.90
2022-07-29T21:33:21.934Z,11.79
2022-07-29T21:36:20.257Z,11.79
2022-07-29T21:38:42.973Z,11.66
2022-07-29T21:41:13.870Z,11.55
2022-07-29T21:43:44.622Z,11.49
2022-07-29T21:46:17.658Z,11.46
2022-07-29T21:48:48.189Z,11.38
2022-07-29T21:51:18.591Z,11.39
2022-07-29T21:53:48.990Z,11.29
2022-07-29T21:56:19.332Z,11.25
2022-07-29T21:58:51.364Z,11.21
2022-07-29T22:01:21.705Z,11.19
2022-07-29T22:03:52.465Z,11.14
2022-07-29T22:06:22.942Z,11.07
2022-07-29T22:08:53.093Z,11.03
2022-07-29T22:11:23.541Z,10.88
2022-07-29T22:13:54.146Z,10.77
2022-07-29T22:16:25.016Z,10.80
2022-07-29T22:18:55.215Z,10.84
2022-07-29T22:21:25.276Z,10.81
2022-07-29T22:23:56.094Z,10.70
2022-07-29T22:26:26.662Z,10.61
2022-07-29T22:28:56.547Z,10.67
2022-07-29T22:31:26.783Z,10.54
2022-07-29T22:33:56.649Z,10.47
2022-07-29T22:36:28.230Z,10.44
2022-07-29T22:38:59.011Z,10.40
2022-07-29T22:41:31.031Z,10.40
2022-07-29T22:44:01.463Z,10.39
2022-07-29T22:46:31.937Z,10.36
2022-07-29T22:49:02.866Z,10.23
2022-07-29T22:51:33.683Z,10.08
2022-07-29T22:54:04.420Z,10.01
2022-07-29T22:56:34.842Z,9.95
2022-07-29T22:59:05.344Z,9.94
2022-07-29T23:01:38.192Z,9.95
2022-07-29T23:04:09.097Z,9.98
2022-07-29T23:06:39.623Z,10.01
2022-07-29T23:09:09.947Z,9.95
2022-07-29T23:11:40.767Z,9.94
2022-07-29T23:14:10.690Z,9.81
2022-07-29T23:16:41.063Z,9.71
2022-07-29T23:19:11.480Z,9.73
2022-07-29T23:21:42.187Z,9.71
2022-07-29T23:24:12.081Z,9.65
2022-07-29T23:26:42.353Z,9.62
2022-07-29T23:29:12.741Z,9.61
2022-07-29T23:31:48.275Z,9.57
2022-07-29T23:34:18.879Z,9.51
2022-07-29T23:36:48.748Z,9.43
2022-07-29T23:39:19.282Z,9.40
2022-07-29T23:41:49.779Z,9.45
2022-07-29T23:44:20.085Z,9.40
2022-07-29T23:46:50.057Z,9.36
2022-07-29T23:49:20.657Z,9.30
2022-07-29T23:51:51.121Z,9.27
2022-07-29T23:54:21.421Z,9.23
2022-07-29T23:56:51.353Z,9.26
2022-07-29T23:59:22.041Z,9.19
